createdAt,value
2018-12-11T00:01:48.342Z,0.90
2018-12-11T00:04:21.408Z,1.20
2018-12-11T00:06:53.960Z,1.03
2018-12-11T00:09:25.061Z,0.87
2018-12-11T00:11:56.221Z,1.20
2018-12-11T00:14:28.081Z,0.97
2018-12-11T00:16:59.021Z,0.80
2018-12-11T00:19:30.303Z,1.20
2018-12-11T00:22:01.561Z,2.40
2018-12-11T00:24:32.581Z,1.10
2018-12-11T00:27:03.440Z,1.50
2018-12-11T00:29:35.220Z,1.07
2018-12-11T00:32:06.149Z,0.80
2018-12-11T00:34:37.999Z,0.40
2018-12-11T00:37:09.020Z,0.80
2018-12-11T00:39:40.419Z,0.57
2018-12-11T00:42:11.760Z,1.20
2018-12-11T00:44:42.863Z,0.60
2018-12-11T00:47:15.141Z,0.77
2018-12-11T00:49:46.479Z,0.50
2018-12-11T00:52:17.360Z,0.90
2018-12-11T00:54:48.760Z,0.73
2018-12-11T00:57:19.781Z,0.53
2018-12-11T00:59:51.560Z,0.70
2018-12-11T01:02:22.681Z,0.57
2018-12-11T01:04:55.000Z,0.50
2018-12-11T01:07:25.903Z,0.60
2018-12-11T01:09:57.082Z,0.60
2018-12-11T01:12:28.400Z,0.53
2018-12-11T01:14:59.381Z,0.57
2018-12-11T01:17:31.304Z,0.43
2018-12-11T01:20:02.740Z,0.60
2018-12-11T01:22:35.460Z,0.30
2018-12-11T01:25:06.702Z,0.60
2018-12-11T01:27:38.181Z,0.60
2018-12-11T01:30:09.260Z,0.30
2018-12-11T01:32:40.561Z,0.50
2018-12-11T01:35:11.940Z,0.57
2018-12-11T01:37:42.539Z,0.60
2018-12-11T01:40:13.579Z,0.80
2018-12-11T01:42:45.079Z,0.37
2018-12-11T01:45:16.101Z,0.73
2018-12-11T01:47:47.121Z,0.70
2018-12-11T01:50:18.481Z,0.83
2018-12-11T01:52:49.860Z,0.60
2018-12-11T01:55:20.902Z,0.53
2018-12-11T01:57:51.820Z,0.47
2018-12-11T02:00:24.260Z,0.60
2018-12-11T02:02:54.902Z,0.60
2018-12-11T02:05:26.022Z,0.27
2018-12-11T02:07:57.381Z,0.30
2018-12-11T02:10:29.060Z,0.60
2018-12-11T02:12:59.714Z,0.43
2018-12-11T02:15:30.502Z,0.30
2018-12-11T02:18:02.022Z,0.40
2018-12-11T02:20:33.041Z,0.80
2018-12-11T02:23:03.781Z,0.70
2018-12-11T02:25:34.883Z,0.50
2018-12-11T02:28:06.320Z,0.40
2018-12-11T02:30:37.423Z,0.87
2018-12-11T02:33:08.560Z,0.60
2018-12-11T02:35:39.602Z,0.17
2018-12-11T02:38:11.036Z,0.83
2018-12-11T02:40:41.840Z,0.63
2018-12-11T02:43:12.412Z,0.30
2018-12-11T02:45:43.162Z,0.43
2018-12-11T02:48:14.950Z,0.30
2018-12-11T02:50:45.941Z,0.90
2018-12-11T02:53:17.061Z,0.37
2018-12-11T02:55:47.884Z,0.63
2018-12-11T02:58:19.303Z,0.37
2018-12-11T03:04:03.455Z,0.50
2018-12-11T03:06:35.495Z,0.30
2018-12-11T03:09:08.040Z,0.23
2018-12-11T03:11:39.135Z,0.33
2018-12-11T03:14:10.533Z,0.37
2018-12-11T03:16:41.634Z,0.57
2018-12-11T03:19:12.936Z,0.63
2018-12-11T03:21:43.275Z,0.90
2018-12-11T03:24:14.335Z,0.90
2018-12-11T03:26:45.294Z,0.60
2018-12-11T03:29:16.314Z,0.63
2018-12-11T03:31:47.455Z,1.10
2018-12-11T03:34:19.155Z,0.90
2018-12-11T03:36:50.496Z,0.90
2018-12-11T03:39:21.837Z,0.80
2018-12-11T03:41:52.794Z,0.70
2018-12-11T03:44:23.562Z,0.77
2018-12-11T03:46:54.915Z,0.50
2018-12-11T03:49:27.017Z,1.23
2018-12-11T03:51:58.034Z,0.70
2018-12-11T03:54:28.986Z,0.30
2018-12-11T03:57:00.174Z,0.50
2018-12-11T03:59:30.974Z,0.87
2018-12-11T04:02:02.194Z,0.60
2018-12-11T04:04:33.302Z,0.53
2018-12-11T04:07:04.273Z,0.40
2018-12-11T04:09:35.893Z,0.37
2018-12-11T04:12:07.134Z,0.57
2018-12-11T04:14:38.678Z,0.50
2018-12-11T04:17:09.495Z,0.40
2018-12-11T04:19:41.374Z,0.40
2018-12-11T04:22:13.439Z,0.57
2018-12-11T04:24:44.114Z,0.27
2018-12-11T04:27:16.953Z,0.43
2018-12-11T04:29:47.397Z,0.47
2018-12-11T04:32:18.554Z,0.73
2018-12-11T04:34:49.297Z,1.00
2018-12-11T04:37:21.454Z,0.80
2018-12-11T04:39:52.564Z,0.53
2018-12-11T04:42:23.134Z,0.53
2018-12-11T04:44:54.993Z,0.30
2018-12-11T04:47:25.854Z,0.40
2018-12-11T04:49:57.381Z,0.60
2018-12-11T04:52:28.025Z,0.30
2018-12-11T04:54:59.327Z,0.97
2018-12-11T04:57:30.542Z,0.60
2018-12-11T05:00:01.575Z,0.63
2018-12-11T05:02:32.714Z,0.43
2018-12-11T05:05:04.375Z,0.50
2018-12-11T05:07:35.634Z,0.83
2018-12-11T05:10:07.778Z,0.77
2018-12-11T05:12:38.654Z,0.70
2018-12-11T05:15:09.144Z,0.53
2018-12-11T05:17:40.434Z,0.67
2018-12-11T05:20:11.302Z,0.40
2018-12-11T05:22:42.185Z,0.60
2018-12-11T05:25:13.133Z,0.43
2018-12-11T05:27:44.614Z,0.50
2018-12-11T05:30:15.293Z,0.40
2018-12-11T05:32:46.133Z,0.60
2018-12-11T05:35:17.394Z,0.33
2018-12-11T05:37:48.297Z,0.60
2018-12-11T05:40:19.794Z,0.57
2018-12-11T05:42:50.754Z,0.50
2018-12-11T05:45:21.752Z,0.30
2018-12-11T05:47:52.514Z,0.73
2018-12-11T05:50:23.634Z,0.67
2018-12-11T05:52:55.634Z,0.80
2018-12-11T05:55:26.454Z,0.50
2018-12-11T05:57:57.093Z,0.90
2018-12-11T06:00:28.033Z,0.60
2018-12-11T06:02:59.454Z,0.60
2018-12-11T06:05:30.713Z,0.50
2018-12-11T06:08:02.193Z,0.30
2018-12-11T06:10:32.854Z,0.30
2018-12-11T06:13:03.494Z,0.70
2018-12-11T06:15:34.222Z,0.50
2018-12-11T06:18:05.053Z,0.50
2018-12-11T06:20:35.814Z,0.40
2018-12-11T06:23:06.735Z,0.67
2018-12-11T06:25:37.736Z,0.40
2018-12-11T06:28:08.914Z,0.60
2018-12-11T06:30:39.812Z,0.63
2018-12-11T06:33:10.673Z,0.57
2018-12-11T06:35:42.135Z,0.60
2018-12-11T06:38:14.353Z,0.60
2018-12-11T06:40:45.440Z,0.40
2018-12-11T06:43:16.093Z,0.57
2018-12-11T06:45:46.730Z,0.37
2018-12-11T06:48:17.473Z,1.03
2018-12-11T06:50:48.400Z,0.30
2018-12-11T06:53:19.953Z,0.70
2018-12-11T06:55:50.722Z,0.40
2018-12-11T06:58:21.392Z,0.40
2018-12-11T07:00:54.192Z,0.40
2018-12-11T07:03:24.853Z,0.80
2018-12-11T07:05:55.852Z,0.30
2018-12-11T07:08:26.753Z,0.60
2018-12-11T07:10:57.434Z,0.70
2018-12-11T07:13:28.425Z,0.40
2018-12-11T07:15:59.614Z,0.50
2018-12-11T07:18:30.711Z,0.23
2018-12-11T07:21:01.594Z,0.40
2018-12-11T07:23:33.331Z,0.20
2018-12-11T07:26:04.143Z,0.33
2018-12-11T07:28:34.872Z,0.50
2018-12-11T07:31:05.714Z,0.27
2018-12-11T07:33:36.896Z,0.57
2018-12-11T07:36:07.871Z,0.50
2018-12-11T07:38:39.519Z,0.50
2018-12-11T07:41:10.371Z,0.63
2018-12-11T07:43:41.050Z,0.40
2018-12-11T07:46:11.792Z,0.30
2018-12-11T07:48:42.752Z,0.30
2018-12-11T07:51:13.311Z,0.53
2018-12-11T07:53:44.271Z,0.20
2018-12-11T07:56:15.252Z,0.10
2018-12-11T07:58:46.065Z,0.30
2018-12-11T08:01:16.751Z,0.60
2018-12-11T08:03:47.563Z,0.50
2018-12-11T08:06:18.449Z,0.50
2018-12-11T08:08:49.911Z,0.43
2018-12-11T08:11:21.772Z,0.27
2018-12-11T08:13:53.150Z,0.60
2018-12-11T08:16:24.553Z,0.40
2018-12-11T08:18:56.051Z,0.60
2018-12-11T08:21:27.433Z,0.67
2018-12-11T08:23:58.691Z,0.60
2018-12-11T08:26:29.737Z,0.53
2018-12-11T08:29:00.560Z,0.37
2018-12-11T08:31:32.269Z,0.50
2018-12-11T08:34:03.610Z,0.50
2018-12-11T08:36:34.810Z,0.73
2018-12-11T08:39:08.111Z,0.50
2018-12-11T08:41:40.430Z,0.50
2018-12-11T08:44:11.771Z,0.70
2018-12-11T08:46:43.170Z,0.70
2018-12-11T08:49:13.928Z,0.40
2018-12-11T08:51:45.231Z,0.57
2018-12-11T08:54:16.590Z,0.40
2018-12-11T08:56:47.952Z,0.60
2018-12-11T08:59:18.987Z,0.70
2018-12-11T09:01:49.691Z,0.90
2018-12-11T09:04:20.731Z,0.67
2018-12-11T09:06:51.692Z,0.40
2018-12-11T09:09:22.632Z,0.33
2018-12-11T09:11:53.270Z,0.60
2018-12-11T09:14:24.243Z,0.63
2018-12-11T09:16:54.831Z,0.60
2018-12-11T09:19:26.050Z,0.50
2018-12-11T09:21:58.331Z,0.40
2018-12-11T09:24:29.151Z,0.30
2018-12-11T09:26:59.968Z,0.53
2018-12-11T09:29:30.852Z,0.60
2018-12-11T09:32:01.871Z,0.60
2018-12-11T09:34:32.933Z,0.53
2018-12-11T09:37:04.033Z,0.40
2018-12-11T09:39:35.710Z,0.47
2018-12-11T09:42:07.564Z,0.50
2018-12-11T09:44:38.972Z,0.40
2018-12-11T09:47:10.532Z,0.63
2018-12-11T09:49:42.012Z,0.70
2018-12-11T09:52:12.851Z,0.53
2018-12-11T09:54:43.778Z,0.57
2018-12-11T09:57:14.484Z,0.70
2018-12-11T09:59:45.537Z,0.67
2018-12-11T10:02:16.580Z,0.53
2018-12-11T10:04:47.923Z,0.50
2018-12-11T10:07:18.874Z,0.40
2018-12-11T10:09:50.311Z,0.97
2018-12-11T10:12:21.715Z,0.83
2018-12-11T10:14:52.752Z,0.90
2018-12-11T10:17:23.791Z,0.80
2018-12-11T10:19:54.972Z,0.67
2018-12-11T10:22:25.896Z,0.80
2018-12-11T10:24:56.942Z,0.57
2018-12-11T10:27:28.191Z,0.37
2018-12-11T10:29:59.113Z,0.47
2018-12-11T10:32:30.409Z,1.13
2018-12-11T10:35:01.238Z,0.47
2018-12-11T10:37:32.127Z,0.50
2018-12-11T10:40:03.152Z,0.70
2018-12-11T10:42:34.429Z,0.47
2018-12-11T10:45:05.990Z,0.97
2018-12-11T10:47:37.031Z,0.97
2018-12-11T10:50:09.380Z,0.70
2018-12-11T10:52:40.712Z,0.80
2018-12-11T10:55:12.349Z,0.67
2018-12-11T10:57:43.065Z,0.50
2018-12-11T11:00:19.471Z,1.63
2018-12-11T11:02:55.573Z,0.80
2018-12-11T11:05:27.510Z,0.40
2018-12-11T11:07:59.252Z,0.53
2018-12-11T11:10:30.094Z,0.63
2018-12-11T11:13:02.052Z,0.60
2018-12-11T11:15:33.096Z,0.30
2018-12-11T11:18:05.392Z,0.30
2018-12-11T11:20:36.098Z,0.50
2018-12-11T11:23:06.732Z,0.40
2018-12-11T11:25:37.936Z,0.37
2018-12-11T11:28:08.912Z,0.40
2018-12-11T11:30:40.011Z,0.93
2018-12-11T11:33:11.611Z,0.30
2018-12-11T11:35:42.432Z,0.53
2018-12-11T11:38:13.371Z,0.10
2018-12-11T11:40:44.112Z,0.40
2018-12-11T11:43:14.791Z,0.30
2018-12-11T11:45:46.211Z,0.43
2018-12-11T11:48:17.871Z,0.37
2018-12-11T11:50:49.184Z,0.27
2018-12-11T11:53:20.592Z,0.20
2018-12-11T11:55:51.648Z,0.40
2018-12-11T11:58:22.706Z,0.50
2018-12-11T12:00:54.111Z,0.60
2018-12-11T12:03:24.932Z,0.60
2018-12-11T12:05:55.831Z,0.40
2018-12-11T12:08:28.755Z,0.30
2018-12-11T12:11:01.553Z,0.93
2018-12-11T12:13:32.753Z,0.40
2018-12-11T12:16:04.152Z,0.80
2018-12-11T12:18:35.513Z,0.60
2018-12-11T12:21:06.653Z,0.40
2018-12-11T12:23:37.852Z,0.30
2018-12-11T12:26:08.685Z,0.20
2018-12-11T12:28:40.585Z,0.50
2018-12-11T12:31:11.542Z,0.40
2018-12-11T12:33:42.651Z,0.50
2018-12-11T12:36:14.072Z,0.40
2018-12-11T12:38:44.673Z,0.50
2018-12-11T12:41:15.572Z,0.53
2018-12-11T12:43:46.152Z,0.83
2018-12-11T12:46:17.233Z,0.77
2018-12-11T12:48:48.553Z,0.70
2018-12-11T12:51:19.733Z,0.93
2018-12-11T12:53:51.487Z,0.63
2018-12-11T12:56:22.052Z,0.70
2018-12-11T12:58:54.677Z,0.70
2018-12-11T13:01:25.693Z,0.67
2018-12-11T13:03:56.691Z,0.90
2018-12-11T13:06:28.455Z,0.23
2018-12-11T13:09:00.431Z,0.63
2018-12-11T13:11:31.690Z,0.60
2018-12-11T13:14:03.332Z,0.70
2018-12-11T13:16:34.456Z,0.50
2018-12-11T13:19:05.379Z,1.03
2018-12-11T13:21:36.612Z,0.70
2018-12-11T13:24:08.193Z,0.60
2018-12-11T13:26:38.732Z,0.90
2018-12-11T13:29:09.812Z,0.63
2018-12-11T13:31:40.533Z,1.27
2018-12-11T13:34:12.571Z,0.70
2018-12-11T13:36:43.771Z,0.50
2018-12-11T13:39:14.923Z,0.70
2018-12-11T13:41:46.650Z,0.73
2018-12-11T13:44:18.351Z,0.23
2018-12-11T13:46:49.215Z,0.50
2018-12-11T13:49:20.012Z,0.63
2018-12-11T13:51:50.712Z,0.90
2018-12-11T13:54:22.591Z,0.90
2018-12-11T13:56:54.071Z,0.53
2018-12-11T13:59:25.051Z,0.53
2018-12-11T14:01:55.832Z,0.53
2018-12-11T14:04:26.842Z,0.20
2018-12-11T14:06:58.651Z,0.80
2018-12-11T14:09:34.951Z,0.27
2018-12-11T14:12:05.509Z,0.43
2018-12-11T14:14:36.820Z,0.50
2018-12-11T14:17:07.751Z,0.50
2018-12-11T14:19:38.792Z,0.57
2018-12-11T14:22:10.055Z,0.60
2018-12-11T14:24:40.750Z,1.03
2018-12-11T14:27:11.931Z,0.90
2018-12-11T14:29:42.931Z,0.73
2018-12-11T14:32:14.267Z,0.70
2018-12-11T14:34:44.790Z,0.70
2018-12-11T14:37:15.466Z,1.00
2018-12-11T14:39:47.792Z,0.70
2018-12-11T14:42:19.133Z,0.60
2018-12-11T14:44:50.512Z,0.83
2018-12-11T14:47:21.385Z,0.60
2018-12-11T14:49:52.614Z,0.77
2018-12-11T14:52:23.400Z,0.60
2018-12-11T14:54:54.571Z,0.30
2018-12-11T14:57:31.247Z,0.30
2018-12-11T14:59:59.332Z,0.40
2018-12-11T15:02:30.993Z,0.50
2018-12-11T15:05:02.654Z,0.90
2018-12-11T15:07:34.011Z,0.57
2018-12-11T15:10:06.031Z,0.60
2018-12-11T15:12:37.591Z,2.10
2018-12-11T15:15:09.892Z,3.87
2018-12-11T15:17:40.645Z,0.83
2018-12-11T15:20:11.969Z,0.63
2018-12-11T15:22:42.831Z,0.40
2018-12-11T15:25:13.790Z,0.20
2018-12-11T15:27:45.416Z,1.00
2018-12-11T15:30:16.885Z,0.50
2018-12-11T15:32:48.312Z,0.90
2018-12-11T15:35:19.722Z,0.57
2018-12-11T15:37:51.681Z,0.50
2018-12-11T15:40:22.730Z,0.47
2018-12-11T15:42:54.673Z,0.63
2018-12-11T15:45:26.280Z,0.40
2018-12-11T15:48:03.813Z,0.53
2018-12-11T15:50:35.772Z,0.20
2018-12-11T15:53:06.851Z,0.80
2018-12-11T15:55:38.072Z,0.50
2018-12-11T15:58:09.235Z,0.47
2018-12-11T16:00:40.272Z,0.80
2018-12-11T16:03:11.132Z,0.50
2018-12-11T16:05:42.020Z,0.60
2018-12-11T16:08:12.984Z,0.33
2018-12-11T16:10:44.132Z,0.60
2018-12-11T16:13:16.290Z,0.40
2018-12-11T16:15:47.794Z,0.67
2018-12-11T16:18:19.482Z,0.57
2018-12-11T16:20:49.828Z,0.30
2018-12-11T16:23:21.779Z,0.57
2018-12-11T16:25:52.891Z,0.70
2018-12-11T16:28:24.572Z,0.70
2018-12-11T16:30:55.554Z,0.57
2018-12-11T16:33:27.032Z,0.40
2018-12-11T16:35:58.674Z,0.80
2018-12-11T16:38:30.031Z,0.70
2018-12-11T16:41:00.832Z,0.70
2018-12-11T16:43:31.585Z,1.00
2018-12-11T16:46:02.812Z,0.23
2018-12-11T16:48:33.692Z,1.70
2018-12-11T16:51:04.912Z,0.80
2018-12-11T16:53:35.592Z,1.20
2018-12-11T16:56:06.316Z,0.70
2018-12-11T16:58:37.212Z,1.43
2018-12-11T17:01:08.111Z,0.73
2018-12-11T17:03:39.632Z,0.50
2018-12-11T17:06:10.850Z,0.50
2018-12-11T17:08:41.733Z,0.63
2018-12-11T17:11:13.752Z,1.20
2018-12-11T17:13:44.472Z,0.70
2018-12-11T17:16:15.099Z,0.53
2018-12-11T17:18:46.028Z,0.60
2018-12-11T17:21:18.165Z,0.90
2018-12-11T17:23:49.373Z,0.90
2018-12-11T17:26:20.132Z,0.70
2018-12-11T17:28:51.176Z,1.37
2018-12-11T17:31:22.095Z,0.90
2018-12-11T17:33:52.772Z,1.03
2018-12-11T17:36:23.634Z,0.97
2018-12-11T17:38:54.994Z,1.00
2018-12-11T17:41:25.990Z,1.30
2018-12-11T17:43:56.753Z,1.43
2018-12-11T17:46:28.113Z,1.30
2018-12-11T17:49:11.615Z,0.80
2018-12-11T17:51:54.501Z,1.13
2018-12-11T17:54:46.674Z,0.97
2018-12-11T17:57:25.683Z,1.07
2018-12-11T18:00:00.676Z,0.87
2018-12-11T18:02:37.014Z,0.87
2018-12-11T18:05:09.714Z,1.30
2018-12-11T18:07:57.054Z,2.03
2018-12-11T18:10:33.035Z,1.20
2018-12-11T18:13:06.314Z,1.03
2018-12-11T18:15:46.874Z,1.10
2018-12-11T18:18:38.874Z,0.83
2018-12-11T18:21:14.114Z,1.23
2018-12-11T18:23:45.893Z,1.23
2018-12-11T18:26:16.735Z,1.17
2018-12-11T18:28:48.017Z,1.17
2018-12-11T18:31:20.103Z,1.07
2018-12-11T18:33:50.676Z,1.10
2018-12-11T18:36:22.793Z,1.30
2018-12-11T18:38:54.673Z,1.17
2018-12-11T18:41:25.736Z,1.23
2018-12-11T18:43:56.693Z,0.87
2018-12-11T18:46:27.554Z,1.30
2018-12-11T18:48:59.155Z,0.90
2018-12-11T18:51:31.515Z,1.10
2018-12-11T18:54:02.773Z,0.90
2018-12-11T18:56:35.435Z,0.83
2018-12-11T18:59:07.153Z,1.10
2018-12-11T19:01:40.455Z,1.10
2018-12-11T19:04:14.773Z,1.60
2018-12-11T19:06:46.954Z,1.13
2018-12-11T19:09:23.454Z,0.90
2018-12-11T19:11:59.633Z,1.17
2018-12-11T19:14:31.433Z,1.17
2018-12-11T19:17:08.316Z,1.37
2018-12-11T19:20:00.182Z,1.53
2018-12-11T19:22:33.907Z,1.17
2018-12-11T19:25:07.816Z,1.83
2018-12-11T19:27:38.840Z,1.80
2018-12-11T19:30:12.195Z,1.37
2018-12-11T19:32:45.375Z,1.10
2018-12-11T19:35:16.755Z,1.07
2018-12-11T19:37:49.955Z,1.67
2018-12-11T19:40:21.392Z,0.90
2018-12-11T19:42:52.595Z,1.07
2018-12-11T19:45:24.437Z,1.10
2018-12-11T19:47:56.176Z,1.40
2018-12-11T19:50:27.173Z,1.00
2018-12-11T19:52:58.494Z,1.30
2018-12-11T19:55:29.576Z,1.13
2018-12-11T19:58:01.233Z,1.30
2018-12-11T20:00:32.892Z,1.20
2018-12-11T20:03:10.624Z,1.23
2018-12-11T20:05:41.617Z,1.07
2018-12-11T20:08:14.353Z,1.30
2018-12-11T20:10:47.674Z,1.10
2018-12-11T20:13:18.992Z,1.40
2018-12-11T20:15:51.369Z,1.30
2018-12-11T20:18:23.261Z,1.30
2018-12-11T20:20:55.993Z,0.90
2018-12-11T20:23:27.214Z,1.33
2018-12-11T20:25:58.733Z,1.13
2018-12-11T20:28:30.692Z,0.90
2018-12-11T20:31:07.133Z,1.53
2018-12-11T20:33:39.372Z,1.30
2018-12-11T20:36:11.995Z,1.50
2018-12-11T20:38:46.225Z,1.20
2018-12-11T20:41:20.173Z,1.07
2018-12-11T20:43:52.912Z,1.20
2018-12-11T20:46:30.473Z,1.43
2018-12-11T20:49:05.077Z,1.23
2018-12-11T20:51:38.538Z,1.27
2018-12-11T20:54:11.001Z,1.17
2018-12-11T20:56:42.572Z,1.43
2018-12-11T20:59:15.343Z,1.30
2018-12-11T21:01:49.787Z,1.47
2018-12-11T21:04:22.889Z,1.23
2018-12-11T21:06:55.044Z,1.33
2018-12-11T21:09:26.412Z,1.20
2018-12-11T21:11:57.652Z,1.43
2018-12-11T21:14:28.731Z,1.20
2018-12-11T21:17:00.014Z,1.20
2018-12-11T21:19:31.472Z,0.97
2018-12-11T21:22:03.071Z,1.40
2018-12-11T21:24:35.092Z,1.50
2018-12-11T21:27:06.511Z,1.37
2018-12-11T21:29:38.172Z,1.50
2018-12-11T21:32:11.692Z,1.80
2018-12-11T21:34:43.094Z,2.03
2018-12-11T21:37:15.311Z,1.50
2018-12-11T21:39:47.173Z,1.67
2018-12-11T21:42:18.511Z,1.43
2018-12-11T21:44:49.874Z,1.10
2018-12-11T21:47:22.132Z,1.00
2018-12-11T21:49:54.131Z,1.60
2018-12-11T21:52:25.732Z,1.90
2018-12-11T21:54:57.009Z,1.40
2018-12-11T21:57:27.546Z,2.03
2018-12-11T21:59:57.907Z,1.57
2018-12-11T22:02:29.231Z,1.60
2018-12-11T22:04:59.973Z,1.70
2018-12-11T22:07:30.692Z,1.80
2018-12-11T22:10:02.831Z,1.20
2018-12-11T22:12:34.555Z,1.60
2018-12-11T22:15:06.017Z,2.10
2018-12-11T22:17:36.973Z,2.00
2018-12-11T22:20:08.553Z,1.83
2018-12-11T22:22:39.618Z,1.60
2018-12-11T22:25:10.552Z,1.40
2018-12-11T22:27:41.610Z,1.77
2018-12-11T22:30:12.551Z,1.43
2018-12-11T22:32:44.092Z,1.57
2018-12-11T22:35:16.472Z,1.27
2018-12-11T22:37:47.271Z,1.10
2018-12-11T22:40:18.442Z,1.43
2018-12-11T22:42:49.295Z,1.70
2018-12-11T22:45:20.210Z,1.40
2018-12-11T22:47:51.412Z,1.30
2018-12-11T22:50:22.592Z,1.17
2018-12-11T22:52:54.032Z,1.67
2018-12-11T22:55:24.757Z,1.43
2018-12-11T22:57:56.591Z,1.30
2018-12-11T23:00:27.712Z,1.70
2018-12-11T23:03:00.371Z,1.30
2018-12-11T23:05:31.011Z,1.03
2018-12-11T23:08:02.612Z,1.13
2018-12-11T23:10:33.788Z,1.37
2018-12-11T23:13:05.650Z,1.20
2018-12-11T23:15:36.592Z,1.70
2018-12-11T23:18:07.218Z,1.10
2018-12-11T23:20:37.620Z,1.60
2018-12-11T23:23:08.671Z,1.07
2018-12-11T23:25:39.492Z,1.50
2018-12-11T23:28:10.218Z,1.13
2018-12-11T23:30:41.811Z,1.00
2018-12-11T23:33:13.651Z,1.10
2018-12-11T23:35:44.271Z,1.47
2018-12-11T23:38:15.591Z,0.80
2018-12-11T23:40:47.574Z,1.13
2018-12-11T23:43:18.283Z,1.17
2018-12-11T23:45:48.894Z,1.07
2018-12-11T23:48:19.793Z,1.20
2018-12-11T23:50:50.350Z,1.57
2018-12-11T23:53:21.472Z,0.97
2018-12-11T23:55:52.732Z,1.20
2018-12-11T23:58:24.172Z,2.03
